Time;durP1;ratioP1;P1;durP2;ratioP2;P2;SDS_P1;SDS_P2;PMS_P1;PMS_P2;Temp;Humidity;BMP_temperature;BMP_pressure;BME280_temperature;BME280_humidity;BME280_pressure;Samples;Min_cycle;Max_cycle;Signal;HPM_P1;HPM_P2
2021/07/01 00:01:55;;;;;;;8.33;7.30;;;14.90;99.90;;;;;;5033945;28;20472;-76
2021/07/01 00:04:22;;;;;;;7.33;5.70;;;14.90;99.90;;;;;;5033866;28;20433;-75
2021/07/01 00:06:52;;;;;;;8.80;7.53;;;14.90;99.90;;;;;;5015722;28;20474;-75
2021/07/01 00:09:21;;;;;;;8.57;7.67;;;14.90;99.90;;;;;;5031992;28;20453;-75
2021/07/01 00:12:00;;;;;;;7.73;6.93;;;14.90;99.90;;;;;;5015461;28;20461;-74
2021/07/01 00:14:27;;;;;;;8.80;7.20;;;14.90;99.90;;;;;;5017450;28;20460;-73
2021/07/01 00:16:57;;;;;;;8.63;7.53;;;14.90;99.90;;;;;;5018002;28;20473;-74
2021/07/01 00:19:24;;;;;;;8.60;7.50;;;14.90;99.90;;;;;;5013557;28;20522;-73
2021/07/01 00:21:57;;;;;;;9.20;7.63;;;14.90;99.90;;;;;;5013907;28;20489;-73
2021/07/01 00:24:30;;;;;;;9.30;6.90;;;14.90;99.90;;;;;;5026870;28;20443;-73
2021/07/01 00:27:01;;;;;;;13.80;7.60;;;14.90;99.90;;;;;;5013775;28;20483;-73
2021/07/01 00:29:30;;;;;;;8.83;7.73;;;14.90;99.90;;;;;;4997385;28;20430;-73
2021/07/01 00:32:05;;;;;;;11.33;8.60;;;14.90;99.90;;;;;;5027553;28;20472;-72
2021/07/01 00:34:35;;;;;;;12.60;8.87;;;14.90;99.90;;;;;;5034050;28;20807;-72
2021/07/01 00:37:05;;;;;;;10.37;8.13;;;14.80;99.90;;;;;;5033586;28;20457;-73
2021/07/01 00:39:32;;;;;;;9.10;8.00;;;14.70;99.90;;;;;;4999525;28;20543;-72
2021/07/01 00:42:04;;;;;;;13.23;8.13;;;14.70;99.90;;;;;;5015949;28;20463;-73
2021/07/01 00:44:34;;;;;;;10.10;8.00;;;14.80;99.90;;;;;;5033892;28;20474;-72
2021/07/01 00:47:01;;;;;;;11.20;7.93;;;14.80;99.90;;;;;;5001796;28;20468;-72
2021/07/01 00:49:28;;;;;;;13.63;7.70;;;14.70;99.90;;;;;;5013139;28;20434;-72
2021/07/01 00:51:57;;;;;;;10.57;8.30;;;14.70;99.90;;;;;;5012613;28;20474;-73
2021/07/01 00:54:24;;;;;;;8.47;7.57;;;14.80;99.90;;;;;;5014197;28;20574;-73
2021/07/01 00:56:52;;;;;;;8.20;6.87;;;14.80;99.90;;;;;;5013452;28;20466;-73
2021/07/01 00:59:28;;;;;;;10.13;6.40;;;14.80;99.90;;;;;;4995738;28;20810;-72
2021/07/01 01:01:58;;;;;;;7.77;6.60;;;14.80;99.90;;;;;;5013620;28;20474;-73
2021/07/01 01:04:26;;;;;;;7.00;6.10;;;14.80;99.90;;;;;;5012354;28;20446;-74
2021/07/01 01:06:53;;;;;;;6.40;4.20;;;14.70;99.90;;;;;;5013432;28;20523;-74
2021/07/01 01:09:23;;;;;;;4.23;2.93;;;14.60;99.90;;;;;;5019942;28;20461;-74
2021/07/01 01:12:07;;;;;;;3.40;2.50;;;14.50;99.90;;;;;;5017704;28;20469;-74
2021/07/01 01:14:34;;;;;;;4.13;2.57;;;14.40;99.90;;;;;;4999504;28;20468;-74
2021/07/01 01:17:07;;;;;;;2.77;2.53;;;14.40;99.90;;;;;;5015123;28;20464;-74
2021/07/01 01:19:43;;;;;;;3.07;2.33;;;14.50;99.90;;;;;;5012495;28;20544;-74
2021/07/01 01:22:17;;;;;;;3.07;2.77;;;14.50;99.90;;;;;;5012452;28;20556;-74
2021/07/01 01:24:51;;;;;;;5.67;4.13;;;14.50;99.90;;;;;;5012485;28;20555;-74
2021/07/01 01:27:21;;;;;;;3.50;2.90;;;14.50;99.90;;;;;;4995341;28;20544;-74
2021/07/01 01:29:48;;;;;;;5.43;3.03;;;14.50;99.90;;;;;;5012257;28;20441;-74
2021/07/01 01:32:22;;;;;;;4.07;3.47;;;14.40;99.90;;;;;;5031588;28;20468;-74
2021/07/01 01:34:49;;;;;;;4.97;4.27;;;14.40;99.90;;;;;;5033147;28;20846;-74
2021/07/01 01:37:19;;;;;;;4.77;4.30;;;14.40;99.90;;;;;;5013826;28;20456;-74
2021/07/01 01:39:48;;;;;;;5.97;5.33;;;14.40;99.90;;;;;;5013094;28;20428;-74
2021/07/01 01:42:28;;;;;;;5.43;4.70;;;14.40;99.90;;;;;;4966674;28;20458;-74
2021/07/01 01:44:58;;;;;;;7.27;5.40;;;14.30;99.90;;;;;;5013283;28;20445;-74
2021/07/01 01:47:27;;;;;;;5.30;4.80;;;14.30;99.90;;;;;;4998530;28;20479;-74
2021/07/01 01:50:07;;;;;;;7.60;4.90;;;14.40;99.90;;;;;;5015176;28;20464;-73
2021/07/01 01:52:55;;;;;;;7.93;6.10;;;14.40;99.90;;;;;;5009119;28;20914;-73
2021/07/01 01:55:27;;;;;;;7.00;5.87;;;14.40;99.90;;;;;;5012973;28;20470;-73
2021/07/01 01:57:58;;;;;;;6.50;5.60;;;14.50;99.90;;;;;;4996736;28;20469;-73
2021/07/01 02:00:44;;;;;;;6.70;5.80;;;14.60;99.90;;;;;;5032725;28;20619;-73
2021/07/01 02:03:15;;;;;;;6.30;5.70;;;14.60;99.90;;;;;;5014277;28;20465;-72
2021/07/01 02:06:00;;;;;;;7.10;5.97;;;14.60;99.90;;;;;;5014470;28;20446;-72
2021/07/01 02:08:28;;;;;;;9.30;6.07;;;14.70;99.90;;;;;;5013829;28;20444;-72
2021/07/01 02:10:56;;;;;;;6.63;6.03;;;14.70;99.90;;;;;;4993754;28;20958;-72
2021/07/01 02:13:23;;;;;;;7.60;6.90;;;14.80;99.90;;;;;;4994857;28;20448;-72
2021/07/01 02:16:11;;;;;;;7.30;6.47;;;14.80;99.90;;;;;;4997500;28;20451;-73
2021/07/01 02:18:39;;;;;;;8.10;6.03;;;14.70;99.90;;;;;;5010807;28;20452;-72
2021/07/01 02:21:07;;;;;;;9.23;5.77;;;14.70;99.90;;;;;;4997997;28;21019;-73
2021/07/01 02:23:34;;;;;;;7.30;6.10;;;14.70;99.90;;;;;;5014242;28;20470;-73
2021/07/01 02:26:08;;;;;;;7.27;6.47;;;14.70;99.90;;;;;;5014049;28;20926;-73
2021/07/01 02:28:37;;;;;;;7.70;6.50;;;14.70;99.90;;;;;;5032185;28;20415;-74
2021/07/01 02:31:23;;;;;;;7.30;6.10;;;14.70;99.90;;;;;;5016883;28;20442;-74
2021/07/01 02:33:51;;;;;;;6.00;5.40;;;14.70;99.90;;;;;;5013581;28;21032;-73
2021/07/01 02:36:25;;;;;;;8.40;5.80;;;14.70;99.90;;;;;;5031579;28;20752;-73
2021/07/01 02:39:10;;;;;;;6.97;5.87;;;14.60;99.90;;;;;;5031078;28;20457;-73
2021/07/01 02:41:39;;;;;;;5.83;5.30;;;14.60;99.90;;;;;;5031524;28;20469;-73
2021/07/01 02:44:06;;;;;;;9.80;6.90;;;14.70;99.90;;;;;;5014481;28;20462;-73
2021/07/01 02:47:02;;;;;;;8.93;6.57;;;14.70;99.90;;;;;;5017134;28;20817;-73
2021/07/01 02:49:33;;;;;;;7.90;6.37;;;14.70;99.90;;;;;;5030909;28;20856;-73
2021/07/01 02:52:11;;;;;;;7.03;6.33;;;14.70;99.90;;;;;;5029974;28;20820;-73
2021/07/01 02:54:38;;;;;;;6.90;6.20;;;14.60;99.90;;;;;;5013756;28;20477;-72
2021/07/01 02:57:07;;;;;;;11.53;7.17;;;14.70;99.90;;;;;;5030984;28;20466;-73
2021/07/01 02:59:34;;;;;;;7.70;6.90;;;14.70;99.90;;;;;;5014582;28;20422;-72
2021/07/01 03:02:18;;;;;;;7.50;6.70;;;14.70;99.90;;;;;;5029302;28;21033;-72
2021/07/01 03:05:06;;;;;;;8.80;7.10;;;14.70;99.90;;;;;;5013083;28;20438;-72
2021/07/01 03:07:36;;;;;;;10.40;8.07;;;14.70;99.90;;;;;;5012684;28;20879;-72
2021/07/01 03:10:05;;;;;;;10.53;7.53;;;14.70;99.90;;;;;;5014148;28;20472;-72
2021/07/01 03:12:52;;;;;;;13.10;8.40;;;14.60;99.90;;;;;;4999876;28;20519;-72
2021/07/01 03:15:25;;;;;;;11.23;8.03;;;14.60;99.90;;;;;;5032233;28;20536;-72
2021/07/01 03:17:56;;;;;;;9.23;7.67;;;14.60;99.90;;;;;;5013528;28;20472;-73
2021/07/01 03:20:54;;;;;;;10.03;8.00;;;14.70;99.90;;;;;;4994253;28;20433;-73
2021/07/01 03:23:56;;;;;;;9.20;7.70;;;14.70;99.90;;;;;;5031447;28;20445;-73
2021/07/01 03:27:34;;;;;;;11.00;8.60;;;14.70;99.90;;;;;;5025734;28;20981;-73
2021/07/01 03:30:19;;;;;;;9.57;7.77;;;14.60;99.90;;;;;;5019209;28;20856;-73
2021/07/01 03:33:20;;;;;;;10.03;9.00;;;14.50;99.90;;;;;;5005795;28;20460;-73
2021/07/01 03:35:54;;;;;;;9.87;8.57;;;14.60;99.90;;;;;;4996913;28;20509;-73
2021/07/01 03:38:55;;;;;;;10.47;9.00;;;14.60;99.90;;;;;;5016030;28;20452;-73
2021/07/01 03:41:49;;;;;;;13.20;8.70;;;14.60;99.90;;;;;;5013886;28;20979;-73
2021/07/01 03:45:00;;;;;;;11.87;8.63;;;14.60;99.90;;;;;;5012718;28;20431;-73
2021/07/01 03:49:01;;;;;;;15.20;10.00;;;14.70;99.90;;;;;;4982514;28;20542;-75
2021/07/01 03:52:47;;;;;;;12.90;9.10;;;14.70;99.90;;;;;;5022176;28;20848;-74
2021/07/01 04:07:30;;;;;;;;;;;;;;;;;;;;;
2021/07/01 04:16:10;;;;;;;17.83;10.37;;;14.60;99.90;;;;;;4935494;29;20837;-73
2021/07/01 04:20:09;;;;;;;12.07;9.80;;;14.60;99.90;;;;;;4914276;29;20997;-74
2021/07/01 04:23:48;;;;;;;12.10;9.00;;;14.40;99.90;;;;;;4881462;29;20885;-73
2021/07/01 05:08:25;;;;;;;18.00;11.10;;;14.30;99.90;;;;;;4976238;28;20477;-72
2021/07/01 05:15:22;;;;;;;18.20;9.10;;;14.30;99.90;;;;;;5063693;23;20573;-72
2021/07/01 05:19:07;;;;;;;12.23;9.87;;;14.30;99.90;;;;;;4874888;29;21108;-72
2021/07/01 05:22:25;;;;;;;15.57;10.27;;;14.30;99.90;;;;;;4851752;29;20461;-73
2021/07/01 05:25:55;;;;;;;15.83;10.00;;;14.30;99.90;;;;;;4858235;29;20777;-73
2021/07/01 05:29:20;;;;;;;17.93;10.40;;;14.30;99.90;;;;;;4861131;29;20459;-73
2021/07/01 05:32:55;;;;;;;17.17;11.43;;;14.30;99.90;;;;;;4867304;29;20466;-73
2021/07/01 05:36:26;;;;;;;10.97;8.90;;;14.20;99.90;;;;;;4889183;29;20471;-73
2021/07/01 05:43:53;;;;;;;16.70;11.90;;;14.10;99.90;;;;;;4816806;29;20447;-72
2021/07/01 06:00:57;;;;;;;18.23;12.23;;;14.30;99.90;;;;;;4732654;30;21061;-72
2021/07/01 06:22:14;;;;;;;;;;;;;;;;;;;;;
2021/07/01 06:37:13;;;;;;;;;;;;;;;;;;;;;
2021/07/01 06:49:01;;;;;;;16.23;9.53;;;14.30;99.90;;;;;;4877373;29;20504;-73
2021/07/01 06:52:51;;;;;;;14.10;9.80;;;14.30;99.90;;;;;;4769849;29;20909;-72
2021/07/01 07:01:18;;;;;;;16.27;10.00;;;14.40;99.90;;;;;;4736123;30;20476;-73
2021/07/01 07:05:18;;;;;;;17.27;11.40;;;14.40;99.90;;;;;;4712343;30;20534;-73
2021/07/01 07:22:39;;;;;;;16.10;10.70;;;14.50;99.90;;;;;;4760275;29;20472;-71
2021/07/01 07:26:31;;;;;;;17.43;11.20;;;14.50;99.90;;;;;;4780047;29;20442;-71
2021/07/01 07:43:13;;;;;;;17.60;11.67;;;14.60;99.90;;;;;;4752439;29;20567;-73
2021/07/01 07:55:50;;;;;;;14.97;11.70;;;14.60;99.90;;;;;;4730761;30;20463;-73
2021/07/01 08:07:28;;;;;;;15.97;10.10;;;14.40;99.90;;;;;;4704415;30;20510;-74
2021/07/01 08:23:42;;;;;;;;;;;;;;;;;;;;;
2021/07/01 08:27:18;;;;;;;14.70;9.00;;;14.50;99.90;;;;;;4691142;30;20644;-73
2021/07/01 08:30:53;;;;;;;;;;;;;;;;;;;;;
2021/07/01 08:47:22;;;;;;;;;;;;;;;;;;;;;
2021/07/01 08:51:11;;;;;;;19.80;10.43;;;14.60;99.90;;;;;;4774398;29;20481;-72
2021/07/01 08:54:44;;;;;;;16.93;10.07;;;14.60;99.90;;;;;;4794927;29;20472;-72
2021/07/01 09:07:37;;;;;;;16.57;9.60;;;14.80;99.90;;;;;;4782732;29;20519;-73
2021/07/01 09:11:12;;;;;;;14.27;9.00;;;14.80;99.90;;;;;;4784920;29;20550;-73
2021/07/01 09:19:30;;;;;;;;;;;;;;;;;;;;;
2021/07/01 09:23:06;;;;;;;13.50;9.07;;;14.90;99.90;;;;;;4812716;29;20450;-73
2021/07/01 09:39:50;;;;;;;;;;;;;;;;;;;;;
2021/07/01 09:43:26;;;;;;;9.63;7.87;;;15.20;99.90;;;;;;4848140;29;20559;-73
2021/07/01 09:47:40;;;;;;;11.60;7.93;;;15.00;99.90;;;;;;4867992;29;20479;-73
2021/07/01 09:55:10;;;;;;;11.70;8.80;;;14.80;99.90;;;;;;4877890;29;20444;-73
2021/07/01 10:06:05;;;;;;;11.80;7.23;;;15.00;99.90;;;;;;5237733;23;20530;-72
2021/07/01 10:13:55;;;;;;;8.23;7.03;;;15.30;99.90;;;;;;4843640;29;20464;-72
2021/07/01 10:17:41;;;;;;;13.07;9.30;;;15.40;99.90;;;;;;4788039;29;20553;-71
2021/07/01 10:29:43;;;;;;;13.33;7.83;;;15.30;99.90;;;;;;4826019;29;20439;-71
2021/07/01 10:33:24;;;;;;;18.10;13.10;;;15.30;99.90;;;;;;4854133;29;20469;-71
2021/07/01 10:36:26;;;;;;;16.57;11.47;;;15.30;99.90;;;;;;4809697;29;21015;-71
2021/07/01 10:39:23;;;;;;;13.13;8.50;;;15.20;99.90;;;;;;4843364;29;20454;-71
2021/07/01 10:43:05;;;;;;;14.23;10.27;;;15.30;99.90;;;;;;4759636;29;20479;-71
2021/07/01 10:51:24;;;;;;;;;;;;;;;;;;;;;
2021/07/01 11:03:59;;;;;;;10.27;7.57;;;15.40;99.90;;;;;;4644035;30;20469;-71
2021/07/01 11:16:56;;;;;;;10.80;6.43;;;15.40;99.90;;;;;;4730569;30;21056;-71
2021/07/01 11:20:10;;;;;;;12.73;6.50;;;15.50;99.90;;;;;;4771634;29;20855;-71
2021/07/01 11:27:33;;;;;;;9.53;8.67;;;15.50;99.90;;;;;;4762901;29;20926;-71
2021/07/01 11:31:38;;;;;;;14.60;8.57;;;15.40;99.90;;;;;;4838156;29;20993;-71
2021/07/01 11:35:37;;;;;;;11.17;7.70;;;15.40;99.90;;;;;;4824019;29;20970;-71
2021/07/01 11:38:34;;;;;;;10.43;8.20;;;15.40;99.90;;;;;;4806361;29;20465;-71
2021/07/01 11:41:54;;;;;;;13.17;8.53;;;15.50;99.90;;;;;;4828545;29;20540;-71
2021/07/01 11:45:20;;;;;;;13.20;7.73;;;15.70;99.90;;;;;;4840381;29;20435;-71
2021/07/01 11:52:32;;;;;;;;;;;;;;;;;;;;;
2021/07/01 12:05:06;;;;;;;;;;;;;;;;;;;;;
2021/07/01 12:09:36;;;;;;;;;;;;;;;;;;;;;
2021/07/01 12:13:34;;;;;;;10.57;8.40;;;16.00;99.90;;;;;;4813442;29;20488;-71
2021/07/01 12:17:21;;;;;;;10.70;8.37;;;16.10;99.90;;;;;;4817558;29;20504;-71
2021/07/01 12:21:15;;;;;;;11.27;9.20;;;16.10;99.90;;;;;;4825787;29;20516;-71
2021/07/01 12:29:04;;;;;;;11.37;7.10;;;16.10;99.90;;;;;;4762120;29;21073;-71
2021/07/01 12:33:12;;;;;;;9.97;8.60;;;16.00;99.90;;;;;;4772981;29;20471;-71
2021/07/01 12:36:44;;;;;;;10.90;6.83;;;15.90;99.90;;;;;;4769011;30;20483;-71
2021/07/01 12:39:48;;;;;;;7.37;6.60;;;15.80;99.90;;;;;;4754069;30;20536;-71
2021/07/01 12:43:47;;;;;;;10.63;8.10;;;15.70;99.90;;;;;;4766275;30;20460;-71
2021/07/01 12:50:36;;;;;;;15.33;8.73;;;15.70;99.90;;;;;;4843309;29;20665;-71
2021/07/01 12:53:36;;;;;;;12.60;8.83;;;15.70;99.90;;;;;;4789372;29;20606;-71
2021/07/01 13:05:27;;;;;;;12.20;8.80;;;15.60;99.90;;;;;;4803913;29;20443;-71
2021/07/01 13:13:04;;;;;;;10.37;7.03;;;15.50;99.90;;;;;;4725373;30;21085;-71
2021/07/01 13:17:10;;;;;;;15.93;7.60;;;15.40;99.90;;;;;;4707047;30;20491;-71
2021/07/01 13:20:58;;;;;;;10.90;7.30;;;15.40;99.90;;;;;;4683802;30;20646;-71
2021/07/01 13:23:48;;;;;;;11.77;7.73;;;15.50;99.90;;;;;;4690269;30;20474;-71
2021/07/01 13:34:42;;;;;;;12.70;7.27;;;15.60;99.90;;;;;;4652519;30;20458;-73
2021/07/01 13:38:17;;;;;;;8.77;7.30;;;15.60;99.90;;;;;;4650416;30;20602;-73
2021/07/01 13:54:22;;;;;;;;;;;;;;;;;;;;;
2021/07/01 14:02:10;;;;;;;8.03;7.17;;;16.10;99.90;;;;;;4673361;30;21056;-72
2021/07/01 14:05:56;;;;;;;8.80;6.30;;;16.10;99.90;;;;;;4713848;30;20974;-72
2021/07/01 14:10:06;;;;;;;;;;;;;;;;;;;;;
2021/07/01 14:14:12;;;;;;;8.93;6.40;;;16.20;99.90;;;;;;4787085;29;20468;-72
2021/07/01 14:17:48;;;;;;;9.80;5.73;;;16.10;99.90;;;;;;4744943;30;20554;-72
2021/07/01 14:20:30;;;;;;;7.43;4.40;;;16.10;99.90;;;;;;4714329;30;20963;-72
2021/07/01 14:22:57;;;;;;;9.10;5.27;;;16.00;99.90;;;;;;4720366;30;20530;-72
2021/07/01 14:25:36;;;;;;;7.13;4.27;;;15.90;99.90;;;;;;4748961;30;20499;-72
2021/07/01 14:28:11;;;;;;;8.40;5.70;;;15.90;99.90;;;;;;4783844;29;20482;-72
2021/07/01 14:30:47;;;;;;;10.07;4.60;;;16.00;99.90;;;;;;4776461;30;20455;-72
2021/07/01 14:33:43;;;;;;;15.83;10.60;;;15.90;99.90;;;;;;4766294;29;20571;-72
2021/07/01 14:36:12;;;;;;;12.10;8.93;;;15.90;99.90;;;;;;4751497;30;20519;-72
2021/07/01 14:38:55;;;;;;;10.13;7.00;;;15.90;99.90;;;;;;4766855;29;20456;-72
2021/07/01 14:41:35;;;;;;;8.53;6.50;;;15.90;99.90;;;;;;4766158;30;20486;-71
2021/07/01 14:44:04;;;;;;;10.40;6.90;;;15.80;99.90;;;;;;4757428;30;20443;-72
2021/07/01 14:46:34;;;;;;;9.47;5.30;;;15.80;99.90;;;;;;4779694;29;20493;-72
2021/07/01 14:49:25;;;;;;;10.40;6.70;;;15.80;99.90;;;;;;4766633;29;20467;-72
2021/07/01 14:51:58;;;;;;;10.30;5.70;;;15.80;99.90;;;;;;4832570;29;20991;-72
2021/07/01 14:54:27;;;;;;;8.40;5.87;;;15.80;99.90;;;;;;4828097;29;20460;-72
2021/07/01 14:56:56;;;;;;;7.30;5.70;;;15.80;99.90;;;;;;4824381;29;20562;-72
2021/07/01 14:59:46;;;;;;;8.73;5.57;;;15.70;99.90;;;;;;4841235;29;20873;-72
2021/07/01 15:02:35;;;;;;;7.17;5.97;;;15.60;99.90;;;;;;4829675;29;20483;-72
2021/07/01 15:05:13;;;;;;;9.57;6.17;;;15.60;99.90;;;;;;4859444;29;20433;-72
2021/07/01 15:07:45;;;;;;;6.37;5.43;;;15.50;99.90;;;;;;4858260;29;20493;-72
2021/07/01 15:10:14;;;;;;;6.43;5.80;;;15.50;99.90;;;;;;4858404;29;20432;-72
2021/07/01 15:13:01;;;;;;;10.90;6.10;;;15.40;99.90;;;;;;4857723;29;20846;-72
2021/07/01 15:15:37;;;;;;;11.03;6.57;;;15.40;99.90;;;;;;4857683;29;20467;-72
2021/07/01 15:18:05;;;;;;;6.10;5.23;;;15.50;99.90;;;;;;4860083;29;20986;-72
2021/07/01 15:20:32;;;;;;;9.73;6.40;;;15.40;99.90;;;;;;4846851;29;20539;-72
2021/07/01 15:23:01;;;;;;;9.90;5.93;;;15.40;99.90;;;;;;4845786;29;20480;-73
2021/07/01 15:25:28;;;;;;;12.13;6.50;;;15.40;99.90;;;;;;4846382;29;21023;-72
2021/07/01 15:27:58;;;;;;;10.40;6.07;;;15.40;99.90;;;;;;4862049;29;20554;-72
2021/07/01 15:30:24;;;;;;;7.73;6.37;;;15.40;99.90;;;;;;4847414;29;20936;-72
2021/07/01 15:32:51;;;;;;;8.10;6.47;;;15.40;99.90;;;;;;4827642;29;20901;-72
2021/07/01 15:35:18;;;;;;;20.90;6.07;;;15.40;99.90;;;;;;4850108;29;20438;-72
2021/07/01 15:37:45;;;;;;;11.97;6.67;;;15.40;99.90;;;;;;4861488;29;20474;-72
2021/07/01 15:40:19;;;;;;;7.90;5.67;;;15.40;99.90;;;;;;4862370;29;20436;-73
2021/07/01 15:42:47;;;;;;;8.23;5.50;;;15.50;99.90;;;;;;4843785;29;20485;-72
2021/07/01 15:45:15;;;;;;;16.33;6.67;;;15.50;99.90;;;;;;4843301;29;20425;-72
2021/07/01 15:47:48;;;;;;;10.27;6.13;;;15.50;99.90;;;;;;4827262;29;20999;-72
2021/07/01 15:50:16;;;;;;;9.03;6.63;;;15.60;99.90;;;;;;4844335;29;20429;-72
2021/07/01 15:52:44;;;;;;;14.60;9.00;;;15.60;99.90;;;;;;4818199;29;20490;-72
2021/07/01 15:55:12;;;;;;;9.40;6.47;;;15.60;99.90;;;;;;4859787;29;20444;-72
2021/07/01 15:57:38;;;;;;;14.97;7.90;;;15.70;99.90;;;;;;4844364;29;20492;-72
2021/07/01 16:00:08;;;;;;;11.33;8.83;;;15.70;99.90;;;;;;4850951;29;20500;-72
2021/07/01 16:02:38;;;;;;;9.43;7.83;;;15.60;99.90;;;;;;4861097;29;21014;-72
2021/07/01 16:05:06;;;;;;;10.97;7.93;;;15.70;99.90;;;;;;4862377;29;20519;-72
2021/07/01 16:07:36;;;;;;;13.30;9.10;;;15.70;99.90;;;;;;4844366;29;20966;-72
2021/07/01 16:10:03;;;;;;;13.73;9.00;;;15.70;99.90;;;;;;4862341;29;20436;-72
2021/07/01 16:12:32;;;;;;;15.93;9.40;;;15.70;99.90;;;;;;4861073;29;20914;-72
2021/07/01 16:15:00;;;;;;;15.30;9.20;;;15.60;99.90;;;;;;4861549;29;20464;-72
2021/07/01 16:17:27;;;;;;;16.37;10.73;;;15.70;99.90;;;;;;4861303;29;20486;-72
2021/07/01 16:19:54;;;;;;;11.90;9.43;;;15.70;99.90;;;;;;4861985;29;20534;-73
2021/07/01 16:22:21;;;;;;;12.83;8.90;;;15.60;99.90;;;;;;4859768;29;20480;-72
2021/07/01 16:24:51;;;;;;;17.33;10.23;;;15.60;99.90;;;;;;4843646;29;20532;-72
2021/07/01 16:27:19;;;;;;;14.17;9.90;;;15.50;99.90;;;;;;4842701;29;20556;-72
2021/07/01 16:29:48;;;;;;;16.53;10.23;;;15.40;99.90;;;;;;4826678;29;20432;-73
2021/07/01 16:32:18;;;;;;;17.70;9.80;;;15.50;99.90;;;;;;4826930;29;21047;-74
2021/07/01 16:34:45;;;;;;;12.43;9.53;;;15.40;99.90;;;;;;4843542;29;20466;-76
2021/07/01 16:37:12;;;;;;;12.03;9.53;;;15.40;99.90;;;;;;4841506;29;20508;-76
2021/07/01 16:39:39;;;;;;;17.93;11.33;;;15.40;99.90;;;;;;4860096;29;20499;-76
2021/07/01 16:42:11;;;;;;;21.10;10.20;;;15.30;99.90;;;;;;4844596;29;20539;-74
2021/07/01 16:44:38;;;;;;;12.30;9.33;;;15.30;99.90;;;;;;4861731;29;20478;-75
2021/07/01 16:47:06;;;;;;;19.70;9.63;;;15.40;99.90;;;;;;4860797;29;20472;-75
2021/07/01 16:49:33;;;;;;;15.47;8.90;;;15.30;99.90;;;;;;4828336;29;20797;-75
2021/07/01 16:52:02;;;;;;;13.30;8.83;;;15.40;99.90;;;;;;4844798;29;20507;-75
2021/07/01 16:54:30;;;;;;;16.13;9.90;;;15.40;99.90;;;;;;4861176;29;20524;-76
2021/07/01 16:56:59;;;;;;;15.90;9.00;;;15.30;99.90;;;;;;4844378;29;20569;-76
2021/07/01 16:59:29;;;;;;;12.03;9.67;;;15.30;99.90;;;;;;4861390;29;20433;-76
2021/07/01 17:01:58;;;;;;;13.00;8.80;;;15.40;99.90;;;;;;4850788;29;20479;-76
2021/07/01 17:04:28;;;;;;;12.20;9.03;;;15.30;99.90;;;;;;4842317;29;20449;-75
2021/07/01 17:06:56;;;;;;;13.20;8.90;;;15.30;99.90;;;;;;4842261;29;20491;-76
2021/07/01 17:09:25;;;;;;;16.00;9.20;;;15.30;99.90;;;;;;4838825;29;20451;-76
2021/07/01 17:11:54;;;;;;;21.87;8.80;;;15.30;99.90;;;;;;4842112;29;20560;-76
2021/07/01 17:14:21;;;;;;;14.27;8.20;;;15.40;99.90;;;;;;4842918;29;20951;-76
2021/07/01 17:16:53;;;;;;;16.60;9.77;;;15.40;99.90;;;;;;4840428;29;20574;-77
2021/07/01 17:19:29;;;;;;;14.73;9.43;;;15.40;99.90;;;;;;4841765;29;20485;-77
2021/07/01 17:22:01;;;;;;;14.30;9.47;;;15.30;99.90;;;;;;4840817;29;20468;-76
2021/07/01 17:24:29;;;;;;;16.27;9.17;;;15.30;99.90;;;;;;4859050;29;20815;-76
2021/07/01 17:26:58;;;;;;;11.50;8.87;;;15.30;99.90;;;;;;4860104;29;20479;-75
2021/07/01 17:29:27;;;;;;;16.30;8.87;;;15.20;99.90;;;;;;4844271;29;20437;-75
2021/07/01 17:31:55;;;;;;;16.60;9.10;;;15.20;99.90;;;;;;4830428;29;20980;-75
2021/07/01 17:34:23;;;;;;;13.00;8.77;;;15.20;99.90;;;;;;4842591;29;20846;-75
2021/07/01 17:36:51;;;;;;;16.63;9.30;;;15.20;99.90;;;;;;4825504;29;20911;-75
2021/07/01 17:39:22;;;;;;;16.87;9.50;;;15.20;99.90;;;;;;4857186;29;20445;-74
2021/07/01 17:41:51;;;;;;;15.70;9.57;;;15.10;99.90;;;;;;4859453;29;20560;-75
2021/07/01 17:44:23;;;;;;;19.03;9.67;;;15.10;99.90;;;;;;4860591;29;20951;-74
2021/07/01 17:46:51;;;;;;;12.90;9.10;;;15.10;99.90;;;;;;4856573;29;20468;-74
2021/07/01 17:49:19;;;;;;;12.40;8.47;;;15.10;99.90;;;;;;4860395;29;20493;-74
2021/07/01 17:51:47;;;;;;;15.00;10.10;;;15.10;99.90;;;;;;4843221;29;20471;-74
2021/07/01 17:54:14;;;;;;;16.37;9.33;;;15.10;99.90;;;;;;4858948;29;20890;-74
2021/07/01 17:56:42;;;;;;;12.07;9.60;;;15.00;99.90;;;;;;4859731;29;20484;-74
2021/07/01 17:59:13;;;;;;;13.80;9.20;;;15.00;99.90;;;;;;4860250;29;20420;-74
2021/07/01 18:01:42;;;;;;;14.03;8.47;;;15.00;99.90;;;;;;4859761;29;20467;-74
2021/07/01 18:04:09;;;;;;;16.53;9.60;;;15.10;99.90;;;;;;4843460;29;20444;-74
2021/07/01 18:06:36;;;;;;;10.80;8.83;;;15.10;99.90;;;;;;4859963;29;20484;-74
2021/07/01 18:09:05;;;;;;;13.83;10.17;;;15.00;99.90;;;;;;4859544;29;20454;-74
2021/07/01 18:11:37;;;;;;;14.63;9.40;;;15.00;99.90;;;;;;4859382;29;21013;-74
2021/07/01 18:14:08;;;;;;;17.07;9.77;;;15.00;99.90;;;;;;4860147;29;20432;-74
2021/07/01 18:16:35;;;;;;;16.60;10.10;;;15.10;99.90;;;;;;4858959;29;20563;-74
2021/07/01 18:19:05;;;;;;;13.37;8.90;;;15.10;99.90;;;;;;4859751;29;20424;-74
2021/07/01 18:21:33;;;;;;;14.83;8.97;;;15.10;99.90;;;;;;4859649;29;20464;-74
2021/07/01 18:24:02;;;;;;;15.77;9.67;;;15.10;99.90;;;;;;4842689;29;20476;-74
2021/07/01 18:26:29;;;;;;;17.93;10.80;;;15.00;99.90;;;;;;4859258;29;20966;-74
2021/07/01 18:28:56;;;;;;;15.90;10.67;;;15.00;99.90;;;;;;4859600;29;20443;-74
2021/07/01 18:31:22;;;;;;;15.37;10.30;;;15.10;99.90;;;;;;4858800;29;20479;-74
2021/07/01 18:33:49;;;;;;;15.80;10.00;;;15.10;99.90;;;;;;4843380;29;20470;-74
2021/07/01 18:36:17;;;;;;;10.70;8.13;;;15.10;99.90;;;;;;4859484;29;20463;-74
2021/07/01 18:38:43;;;;;;;15.93;9.87;;;15.10;99.90;;;;;;4857689;29;20484;-74
2021/07/01 18:41:10;;;;;;;18.37;10.60;;;15.00;99.90;;;;;;4859838;29;20428;-74
2021/07/01 18:43:42;;;;;;;18.43;10.53;;;15.10;99.90;;;;;;4859819;29;20795;-74
2021/07/01 18:46:12;;;;;;;18.23;9.60;;;15.10;99.90;;;;;;4838798;29;20445;-74
2021/07/01 18:48:43;;;;;;;16.40;10.43;;;15.00;99.90;;;;;;4824574;29;20449;-74
2021/07/01 18:51:11;;;;;;;18.07;10.10;;;15.00;99.90;;;;;;4840230;29;20447;-74
2021/07/01 18:53:38;;;;;;;13.00;9.20;;;15.10;99.90;;;;;;4851232;29;20448;-74
2021/07/01 18:56:08;;;;;;;13.00;10.03;;;15.00;99.90;;;;;;4859144;29;20432;-74
2021/07/01 18:58:41;;;;;;;10.20;8.77;;;15.00;99.90;;;;;;4858150;29;20471;-73
2021/07/01 19:01:13;;;;;;;17.40;10.80;;;15.10;99.90;;;;;;4859014;29;20462;-74
2021/07/01 19:03:43;;;;;;;21.47;9.97;;;15.00;99.90;;;;;;4840122;29;20533;-74
2021/07/01 19:06:21;;;;;;;11.27;8.87;;;15.10;99.90;;;;;;4839505;29;20429;-73
2021/07/01 19:08:48;;;;;;;17.70;10.30;;;15.00;99.90;;;;;;4850791;29;20484;-74
2021/07/01 19:11:21;;;;;;;13.10;8.43;;;15.00;99.90;;;;;;4857715;29;20451;-73
2021/07/01 19:13:48;;;;;;;14.77;9.40;;;15.00;99.90;;;;;;4858217;29;20448;-74
2021/07/01 19:16:15;;;;;;;14.50;10.10;;;15.00;99.90;;;;;;4858386;29;20493;-74
2021/07/01 19:18:42;;;;;;;15.03;10.10;;;14.90;99.90;;;;;;4858051;29;20508;-73
2021/07/01 19:21:09;;;;;;;17.57;9.90;;;15.00;99.90;;;;;;4859329;29;20427;-73
2021/07/01 19:23:36;;;;;;;15.03;10.03;;;14.90;99.90;;;;;;4857807;29;20468;-73
2021/07/01 19:26:03;;;;;;;13.60;9.50;;;14.90;99.90;;;;;;4858762;29;20431;-74
2021/07/01 19:28:30;;;;;;;24.07;10.67;;;14.90;99.90;;;;;;4857977;29;20477;-74
2021/07/01 19:30:57;;;;;;;17.47;10.90;;;14.90;99.90;;;;;;4858121;29;20438;-74
2021/07/01 19:33:24;;;;;;;15.43;9.70;;;14.80;99.90;;;;;;4858951;29;20591;-74
2021/07/01 19:35:51;;;;;;;14.17;10.20;;;14.80;99.90;;;;;;4859267;29;20541;-74
2021/07/01 19:38:21;;;;;;;16.37;9.73;;;14.80;99.90;;;;;;4837544;29;20483;-73
2021/07/01 19:40:48;;;;;;;15.27;10.60;;;14.80;99.90;;;;;;4859330;29;20425;-73
2021/07/01 19:43:19;;;;;;;13.23;9.00;;;14.80;99.90;;;;;;4842100;29;20468;-73
2021/07/01 19:45:48;;;;;;;20.07;10.27;;;14.80;99.90;;;;;;4854638;29;20448;-73
2021/07/01 19:48:22;;;;;;;15.13;10.23;;;14.80;99.90;;;;;;4840070;29;20472;-73
2021/07/01 19:50:52;;;;;;;20.80;10.43;;;14.80;99.90;;;;;;4839540;29;20837;-73
2021/07/01 19:53:23;;;;;;;19.47;11.27;;;14.80;99.90;;;;;;4848027;29;20475;-73
2021/07/01 19:55:52;;;;;;;16.63;10.13;;;14.80;99.90;;;;;;4859174;29;20458;-74
2021/07/01 19:58:21;;;;;;;14.77;9.03;;;14.80;99.90;;;;;;4857230;29;20805;-74
2021/07/01 20:00:49;;;;;;;18.40;10.83;;;14.80;99.90;;;;;;4859096;29;20427;-73
2021/07/01 20:03:16;;;;;;;15.97;10.37;;;14.90;99.90;;;;;;4841676;29;20967;-74
2021/07/01 20:05:43;;;;;;;20.23;10.87;;;14.90;99.90;;;;;;4862536;29;20464;-74
2021/07/01 20:08:10;;;;;;;35.57;10.50;;;14.80;99.90;;;;;;4860736;29;20588;-74
2021/07/01 20:10:37;;;;;;;20.13;10.20;;;14.80;99.90;;;;;;4862355;29;20438;-74
2021/07/01 20:13:04;;;;;;;14.93;10.30;;;14.80;99.90;;;;;;4860291;29;20487;-75
2021/07/01 20:15:33;;;;;;;14.70;10.67;;;14.80;99.90;;;;;;4860469;29;20556;-75
2021/07/01 20:18:01;;;;;;;17.80;10.40;;;14.80;99.90;;;;;;4841529;29;20492;-77